sensor_id;sensor_type;location;lat;lon;timestamp;P1;durP1;ratioP1;P2;durP2;ratioP2
6207;SDS011;3137;51.550;7.060;2024-03-08T00:01:41;50.97;;;26.27;;
6207;SDS011;3137;51.550;7.060;2024-03-08T00:04:07;40.33;;;26.60;;
6207;SDS011;3137;51.550;7.060;2024-03-08T00:06:34;47.03;;;25.97;;
6207;SDS011;3137;51.550;7.060;2024-03-08T00:09:00;45.80;;;27.00;;
6207;SDS011;3137;51.550;7.060;2024-03-08T00:11:27;44.00;;;27.50;;
6207;SDS011;3137;51.550;7.060;2024-03-08T00:13:53;45.00;;;25.57;;
6207;SDS011;3137;51.550;7.060;2024-03-08T00:16:20;51.57;;;27.30;;
6207;SDS011;3137;51.550;7.060;2024-03-08T00:18:46;42.50;;;26.77;;
6207;SDS011;3137;51.550;7.060;2024-03-08T00:21:13;42.90;;;26.87;;
6207;SDS011;3137;51.550;7.060;2024-03-08T00:23:41;40.17;;;24.87;;
6207;SDS011;3137;51.550;7.060;2024-03-08T00:26:08;46.53;;;27.27;;
6207;SDS011;3137;51.550;7.060;2024-03-08T00:28:34;45.30;;;26.13;;
6207;SDS011;3137;51.550;7.060;2024-03-08T00:31:01;44.90;;;26.87;;
6207;SDS011;3137;51.550;7.060;2024-03-08T00:33:27;47.17;;;26.97;;
6207;SDS011;3137;51.550;7.060;2024-03-08T00:35:54;41.93;;;25.90;;
6207;SDS011;3137;51.550;7.060;2024-03-08T00:38:20;47.43;;;28.50;;
6207;SDS011;3137;51.550;7.060;2024-03-08T00:40:46;50.47;;;27.47;;
6207;SDS011;3137;51.550;7.060;2024-03-08T00:43:13;46.60;;;28.47;;
6207;SDS011;3137;51.550;7.060;2024-03-08T00:45:39;55.47;;;28.27;;
6207;SDS011;3137;51.550;7.060;2024-03-08T00:48:08;48.77;;;28.03;;
6207;SDS011;3137;51.550;7.060;2024-03-08T00:50:35;47.73;;;27.50;;
6207;SDS011;3137;51.550;7.060;2024-03-08T00:53:02;44.80;;;27.47;;
6207;SDS011;3137;51.550;7.060;2024-03-08T00:55:28;52.23;;;28.10;;
6207;SDS011;3137;51.550;7.060;2024-03-08T00:57:55;45.80;;;28.37;;
6207;SDS011;3137;51.550;7.060;2024-03-08T01:00:22;51.80;;;27.40;;
6207;SDS011;3137;51.550;7.060;2024-03-08T01:02:48;49.17;;;28.03;;
6207;SDS011;3137;51.550;7.060;2024-03-08T01:05:15;49.77;;;28.30;;
6207;SDS011;3137;51.550;7.060;2024-03-08T01:07:41;44.33;;;27.80;;
6207;SDS011;3137;51.550;7.060;2024-03-08T01:10:08;46.23;;;29.17;;
6207;SDS011;3137;51.550;7.060;2024-03-08T01:12:38;51.57;;;29.20;;
6207;SDS011;3137;51.550;7.060;2024-03-08T01:15:05;49.03;;;29.37;;
6207;SDS011;3137;51.550;7.060;2024-03-08T01:17:32;43.03;;;27.57;;
6207;SDS011;3137;51.550;7.060;2024-03-08T01:19:58;44.87;;;28.57;;
6207;SDS011;3137;51.550;7.060;2024-03-08T01:22:25;52.10;;;28.07;;
6207;SDS011;3137;51.550;7.060;2024-03-08T01:24:51;44.37;;;27.37;;
6207;SDS011;3137;51.550;7.060;2024-03-08T01:27:17;42.77;;;27.20;;
6207;SDS011;3137;51.550;7.060;2024-03-08T01:29:44;55.80;;;29.37;;
6207;SDS011;3137;51.550;7.060;2024-03-08T01:32:10;44.83;;;27.53;;
6207;SDS011;3137;51.550;7.060;2024-03-08T01:34:38;45.37;;;27.77;;
6207;SDS011;3137;51.550;7.060;2024-03-08T01:37:04;43.67;;;28.23;;
6207;SDS011;3137;51.550;7.060;2024-03-08T01:39:31;50.70;;;28.50;;
6207;SDS011;3137;51.550;7.060;2024-03-08T01:41:59;50.77;;;27.93;;
6207;SDS011;3137;51.550;7.060;2024-03-08T01:44:26;48.60;;;29.40;;
6207;SDS011;3137;51.550;7.060;2024-03-08T01:46:53;47.60;;;28.73;;
6207;SDS011;3137;51.550;7.060;2024-03-08T01:49:20;53.80;;;30.33;;
6207;SDS011;3137;51.550;7.060;2024-03-08T01:51:50;42.27;;;27.37;;
6207;SDS011;3137;51.550;7.060;2024-03-08T01:54:18;52.83;;;28.30;;
6207;SDS011;3137;51.550;7.060;2024-03-08T01:56:46;47.63;;;29.20;;
6207;SDS011;3137;51.550;7.060;2024-03-08T01:59:13;47.60;;;27.37;;
6207;SDS011;3137;51.550;7.060;2024-03-08T02:01:40;52.70;;;29.63;;
6207;SDS011;3137;51.550;7.060;2024-03-08T02:04:07;48.67;;;28.10;;
6207;SDS011;3137;51.550;7.060;2024-03-08T02:06:34;51.07;;;27.83;;
6207;SDS011;3137;51.550;7.060;2024-03-08T02:09:01;46.40;;;27.70;;
6207;SDS011;3137;51.550;7.060;2024-03-08T02:11:33;44.97;;;28.30;;
6207;SDS011;3137;51.550;7.060;2024-03-08T02:14:00;47.03;;;28.07;;
6207;SDS011;3137;51.550;7.060;2024-03-08T02:16:26;48.23;;;28.07;;
6207;SDS011;3137;51.550;7.060;2024-03-08T02:18:53;51.27;;;28.50;;
6207;SDS011;3137;51.550;7.060;2024-03-08T02:21:20;50.93;;;28.83;;
6207;SDS011;3137;51.550;7.060;2024-03-08T02:23:47;49.50;;;28.20;;
6207;SDS011;3137;51.550;7.060;2024-03-08T02:26:13;53.27;;;28.53;;
6207;SDS011;3137;51.550;7.060;2024-03-08T02:28:40;52.43;;;29.67;;
6207;SDS011;3137;51.550;7.060;2024-03-08T02:31:09;51.17;;;30.10;;
6207;SDS011;3137;51.550;7.060;2024-03-08T02:33:35;48.97;;;27.80;;
6207;SDS011;3137;51.550;7.060;2024-03-08T02:36:02;55.87;;;29.37;;
6207;SDS011;3137;51.550;7.060;2024-03-08T02:38:29;45.80;;;28.33;;
6207;SDS011;3137;51.550;7.060;2024-03-08T02:40:55;47.50;;;28.27;;
6207;SDS011;3137;51.550;7.060;2024-03-08T02:43:22;50.97;;;28.40;;
6207;SDS011;3137;51.550;7.060;2024-03-08T02:45:49;47.50;;;27.97;;
6207;SDS011;3137;51.550;7.060;2024-03-08T02:48:16;51.93;;;28.80;;
6207;SDS011;3137;51.550;7.060;2024-03-08T02:50:43;50.77;;;27.87;;
6207;SDS011;3137;51.550;7.060;2024-03-08T02:53:13;47.27;;;28.53;;
6207;SDS011;3137;51.550;7.060;2024-03-08T02:55:40;48.43;;;28.47;;
6207;SDS011;3137;51.550;7.060;2024-03-08T02:58:08;47.00;;;28.57;;
6207;SDS011;3137;51.550;7.060;2024-03-08T03:00:37;50.73;;;27.40;;
6207;SDS011;3137;51.550;7.060;2024-03-08T03:03:05;49.63;;;28.57;;
6207;SDS011;3137;51.550;7.060;2024-03-08T03:05:33;46.10;;;28.10;;
6207;SDS011;3137;51.550;7.060;2024-03-08T03:08:02;57.17;;;28.93;;
6207;SDS011;3137;51.550;7.060;2024-03-08T03:10:36;52.83;;;28.53;;
6207;SDS011;3137;51.550;7.060;2024-03-08T03:13:02;51.17;;;28.00;;
6207;SDS011;3137;51.550;7.060;2024-03-08T03:15:30;48.87;;;28.23;;
6207;SDS011;3137;51.550;7.060;2024-03-08T03:17:57;50.43;;;28.90;;
6207;SDS011;3137;51.550;7.060;2024-03-08T03:20:23;52.20;;;29.70;;
6207;SDS011;3137;51.550;7.060;2024-03-08T03:22:53;51.13;;;29.23;;
6207;SDS011;3137;51.550;7.060;2024-03-08T03:25:20;51.23;;;30.53;;
6207;SDS011;3137;51.550;7.060;2024-03-08T03:27:52;49.00;;;28.37;;
6207;SDS011;3137;51.550;7.060;2024-03-08T03:30:19;53.17;;;29.50;;
6207;SDS011;3137;51.550;7.060;2024-03-08T03:32:48;52.70;;;29.27;;
6207;SDS011;3137;51.550;7.060;2024-03-08T03:35:17;51.23;;;29.23;;
6207;SDS011;3137;51.550;7.060;2024-03-08T03:37:44;53.93;;;28.47;;
6207;SDS011;3137;51.550;7.060;2024-03-08T03:40:17;53.33;;;30.07;;
6207;SDS011;3137;51.550;7.060;2024-03-08T03:42:46;49.17;;;28.50;;
6207;SDS011;3137;51.550;7.060;2024-03-08T03:45:13;48.03;;;28.40;;
6207;SDS011;3137;51.550;7.060;2024-03-08T03:47:42;56.23;;;30.97;;
6207;SDS011;3137;51.550;7.060;2024-03-08T03:50:09;50.50;;;28.37;;
6207;SDS011;3137;51.550;7.060;2024-03-08T03:52:36;48.83;;;28.57;;
6207;SDS011;3137;51.550;7.060;2024-03-08T03:55:03;50.23;;;29.83;;
6207;SDS011;3137;51.550;7.060;2024-03-08T03:57:30;50.10;;;29.53;;
6207;SDS011;3137;51.550;7.060;2024-03-08T03:59:57;51.27;;;28.33;;
6207;SDS011;3137;51.550;7.060;2024-03-08T04:02:38;52.07;;;29.73;;
6207;SDS011;3137;51.550;7.060;2024-03-08T04:05:05;54.37;;;31.00;;
6207;SDS011;3137;51.550;7.060;2024-03-08T04:07:32;63.77;;;31.57;;
6207;SDS011;3137;51.550;7.060;2024-03-08T04:10:03;60.07;;;30.53;;
6207;SDS011;3137;51.550;7.060;2024-03-08T04:12:32;60.57;;;32.93;;
6207;SDS011;3137;51.550;7.060;2024-03-08T04:15:02;57.83;;;30.63;;
6207;SDS011;3137;51.550;7.060;2024-03-08T04:17:29;55.23;;;30.70;;
6207;SDS011;3137;51.550;7.060;2024-03-08T04:19:55;51.00;;;29.63;;
6207;SDS011;3137;51.550;7.060;2024-03-08T04:22:23;57.37;;;31.03;;
6207;SDS011;3137;51.550;7.060;2024-03-08T04:24:49;54.27;;;31.07;;
6207;SDS011;3137;51.550;7.060;2024-03-08T04:27:15;56.97;;;31.43;;
6207;SDS011;3137;51.550;7.060;2024-03-08T04:29:42;50.00;;;28.20;;
6207;SDS011;3137;51.550;7.060;2024-03-08T04:32:09;56.67;;;30.70;;
6207;SDS011;3137;51.550;7.060;2024-03-08T04:34:36;50.13;;;29.10;;
6207;SDS011;3137;51.550;7.060;2024-03-08T04:37:02;59.40;;;31.47;;
6207;SDS011;3137;51.550;7.060;2024-03-08T04:39:31;53.20;;;28.53;;
6207;SDS011;3137;51.550;7.060;2024-03-08T04:41:58;64.40;;;32.10;;
6207;SDS011;3137;51.550;7.060;2024-03-08T04:44:32;49.93;;;30.10;;
6207;SDS011;3137;51.550;7.060;2024-03-08T04:46:59;58.63;;;30.40;;
6207;SDS011;3137;51.550;7.060;2024-03-08T04:49:26;52.93;;;29.47;;
6207;SDS011;3137;51.550;7.060;2024-03-08T04:51:54;51.37;;;30.60;;
6207;SDS011;3137;51.550;7.060;2024-03-08T04:54:21;54.23;;;29.33;;
6207;SDS011;3137;51.550;7.060;2024-03-08T04:56:47;52.97;;;30.03;;
6207;SDS011;3137;51.550;7.060;2024-03-08T04:59:14;54.90;;;30.40;;
6207;SDS011;3137;51.550;7.060;2024-03-08T05:01:40;59.23;;;32.40;;
6207;SDS011;3137;51.550;7.060;2024-03-08T05:04:07;57.67;;;31.30;;
6207;SDS011;3137;51.550;7.060;2024-03-08T05:06:35;59.93;;;32.47;;
6207;SDS011;3137;51.550;7.060;2024-03-08T05:09:02;59.03;;;30.93;;
6207;SDS011;3137;51.550;7.060;2024-03-08T05:11:45;58.77;;;31.60;;
6207;SDS011;3137;51.550;7.060;2024-03-08T05:14:13;53.07;;;30.60;;
6207;SDS011;3137;51.550;7.060;2024-03-08T05:16:46;55.67;;;30.10;;
6207;SDS011;3137;51.550;7.060;2024-03-08T05:19:16;68.80;;;30.77;;
6207;SDS011;3137;51.550;7.060;2024-03-08T05:21:47;58.73;;;31.40;;
6207;SDS011;3137;51.550;7.060;2024-03-08T05:24:15;58.97;;;30.27;;
6207;SDS011;3137;51.550;7.060;2024-03-08T05:26:43;56.10;;;29.73;;
6207;SDS011;3137;51.550;7.060;2024-03-08T05:29:09;62.63;;;31.27;;
6207;SDS011;3137;51.550;7.060;2024-03-08T05:31:38;59.40;;;32.60;;
6207;SDS011;3137;51.550;7.060;2024-03-08T05:34:15;59.60;;;31.73;;
6207;SDS011;3137;51.550;7.060;2024-03-08T05:36:43;56.90;;;31.17;;
6207;SDS011;3137;51.550;7.060;2024-03-08T05:39:13;59.40;;;30.63;;
6207;SDS011;3137;51.550;7.060;2024-03-08T05:41:39;57.60;;;31.80;;
6207;SDS011;3137;51.550;7.060;2024-03-08T05:44:07;62.50;;;32.17;;
6207;SDS011;3137;51.550;7.060;2024-03-08T05:46:34;61.13;;;31.57;;
6207;SDS011;3137;51.550;7.060;2024-03-08T05:49:05;62.13;;;31.63;;
6207;SDS011;3137;51.550;7.060;2024-03-08T05:51:33;61.87;;;32.07;;
6207;SDS011;3137;51.550;7.060;2024-03-08T05:54:03;63.30;;;33.10;;
6207;SDS011;3137;51.550;7.060;2024-03-08T05:56:32;63.93;;;32.17;;
6207;SDS011;3137;51.550;7.060;2024-03-08T05:58:59;61.70;;;31.23;;
6207;SDS011;3137;51.550;7.060;2024-03-08T06:01:26;57.47;;;29.97;;
6207;SDS011;3137;51.550;7.060;2024-03-08T06:03:53;54.90;;;30.00;;
6207;SDS011;3137;51.550;7.060;2024-03-08T06:06:22;54.03;;;30.60;;
6207;SDS011;3137;51.550;7.060;2024-03-08T06:08:50;58.83;;;32.27;;
6207;SDS011;3137;51.550;7.060;2024-03-08T06:11:17;65.67;;;31.90;;
6207;SDS011;3137;51.550;7.060;2024-03-08T06:13:45;56.37;;;30.27;;
6207;SDS011;3137;51.550;7.060;2024-03-08T06:16:12;62.43;;;31.73;;
6207;SDS011;3137;51.550;7.060;2024-03-08T06:18:38;57.83;;;31.97;;
6207;SDS011;3137;51.550;7.060;2024-03-08T06:21:08;59.13;;;31.37;;
6207;SDS011;3137;51.550;7.060;2024-03-08T06:23:35;65.80;;;31.77;;
6207;SDS011;3137;51.550;7.060;2024-03-08T06:26:05;64.53;;;32.90;;
6207;SDS011;3137;51.550;7.060;2024-03-08T06:28:32;68.57;;;33.23;;
6207;SDS011;3137;51.550;7.060;2024-03-08T06:30:58;60.10;;;32.03;;
6207;SDS011;3137;51.550;7.060;2024-03-08T06:33:25;61.97;;;32.03;;
6207;SDS011;3137;51.550;7.060;2024-03-08T06:35:54;55.83;;;30.47;;
6207;SDS011;3137;51.550;7.060;2024-03-08T06:38:24;62.77;;;31.33;;
6207;SDS011;3137;51.550;7.060;2024-03-08T06:40:54;60.10;;;31.60;;
6207;SDS011;3137;51.550;7.060;2024-03-08T06:43:21;62.70;;;32.17;;
6207;SDS011;3137;51.550;7.060;2024-03-08T06:45:47;68.80;;;32.57;;
6207;SDS011;3137;51.550;7.060;2024-03-08T06:48:19;62.60;;;33.03;;
6207;SDS011;3137;51.550;7.060;2024-03-08T06:50:46;63.77;;;32.80;;
6207;SDS011;3137;51.550;7.060;2024-03-08T06:53:13;63.30;;;33.77;;
6207;SDS011;3137;51.550;7.060;2024-03-08T06:55:40;60.67;;;31.97;;
6207;SDS011;3137;51.550;7.060;2024-03-08T06:58:06;65.40;;;32.97;;
6207;SDS011;3137;51.550;7.060;2024-03-08T07:00:33;60.77;;;32.47;;
6207;SDS011;3137;51.550;7.060;2024-03-08T07:02:59;60.87;;;33.57;;
6207;SDS011;3137;51.550;7.060;2024-03-08T07:05:29;59.77;;;32.77;;
6207;SDS011;3137;51.550;7.060;2024-03-08T07:07:57;62.13;;;32.27;;
6207;SDS011;3137;51.550;7.060;2024-03-08T07:10:24;58.10;;;31.00;;
6207;SDS011;3137;51.550;7.060;2024-03-08T07:12:52;61.10;;;32.70;;
6207;SDS011;3137;51.550;7.060;2024-03-08T07:15:19;57.00;;;32.07;;
6207;SDS011;3137;51.550;7.060;2024-03-08T07:17:46;58.10;;;30.53;;
6207;SDS011;3137;51.550;7.060;2024-03-08T07:20:13;71.80;;;33.70;;
6207;SDS011;3137;51.550;7.060;2024-03-08T07:22:42;60.60;;;31.27;;
6207;SDS011;3137;51.550;7.060;2024-03-08T07:25:12;59.87;;;31.10;;
6207;SDS011;3137;51.550;7.060;2024-03-08T07:27:47;64.03;;;32.63;;
6207;SDS011;3137;51.550;7.060;2024-03-08T07:30:14;61.23;;;31.90;;
6207;SDS011;3137;51.550;7.060;2024-03-08T07:33:01;59.30;;;31.20;;
6207;SDS011;3137;51.550;7.060;2024-03-08T07:35:29;59.57;;;31.13;;
6207;SDS011;3137;51.550;7.060;2024-03-08T07:37:55;60.43;;;31.47;;
6207;SDS011;3137;51.550;7.060;2024-03-08T07:40:22;62.63;;;32.50;;
6207;SDS011;3137;51.550;7.060;2024-03-08T07:42:49;65.17;;;33.00;;
6207;SDS011;3137;51.550;7.060;2024-03-08T07:45:16;58.13;;;32.70;;
6207;SDS011;3137;51.550;7.060;2024-03-08T07:47:43;57.43;;;30.33;;
6207;SDS011;3137;51.550;7.060;2024-03-08T07:50:10;57.60;;;31.00;;
6207;SDS011;3137;51.550;7.060;2024-03-08T07:52:36;58.50;;;31.77;;
6207;SDS011;3137;51.550;7.060;2024-03-08T07:55:03;61.70;;;31.30;;
6207;SDS011;3137;51.550;7.060;2024-03-08T07:57:32;66.60;;;31.83;;
6207;SDS011;3137;51.550;7.060;2024-03-08T07:59:59;67.27;;;31.07;;
6207;SDS011;3137;51.550;7.060;2024-03-08T08:02:25;56.70;;;29.33;;
6207;SDS011;3137;51.550;7.060;2024-03-08T08:04:52;54.67;;;31.93;;
6207;SDS011;3137;51.550;7.060;2024-03-08T08:07:18;53.57;;;30.20;;
6207;SDS011;3137;51.550;7.060;2024-03-08T08:09:45;56.37;;;30.13;;
6207;SDS011;3137;51.550;7.060;2024-03-08T08:12:11;55.73;;;31.37;;
6207;SDS011;3137;51.550;7.060;2024-03-08T08:14:38;60.23;;;31.60;;
6207;SDS011;3137;51.550;7.060;2024-03-08T08:17:05;64.80;;;32.20;;
6207;SDS011;3137;51.550;7.060;2024-03-08T08:19:34;60.77;;;30.30;;
6207;SDS011;3137;51.550;7.060;2024-03-08T08:22:04;59.93;;;31.27;;
6207;SDS011;3137;51.550;7.060;2024-03-08T08:24:31;48.50;;;27.70;;
6207;SDS011;3137;51.550;7.060;2024-03-08T08:26:58;51.80;;;30.80;;
6207;SDS011;3137;51.550;7.060;2024-03-08T08:29:24;60.27;;;31.37;;
6207;SDS011;3137;51.550;7.060;2024-03-08T08:31:51;53.30;;;30.40;;
6207;SDS011;3137;51.550;7.060;2024-03-08T08:34:18;54.43;;;28.93;;
6207;SDS011;3137;51.550;7.060;2024-03-08T08:36:45;54.40;;;28.93;;
6207;SDS011;3137;51.550;7.060;2024-03-08T08:39:12;48.57;;;28.20;;
6207;SDS011;3137;51.550;7.060;2024-03-08T08:41:43;45.50;;;27.60;;
6207;SDS011;3137;51.550;7.060;2024-03-08T08:44:09;50.57;;;27.57;;
6207;SDS011;3137;51.550;7.060;2024-03-08T08:46:42;47.43;;;28.03;;
6207;SDS011;3137;51.550;7.060;2024-03-08T08:49:08;49.70;;;28.90;;
6207;SDS011;3137;51.550;7.060;2024-03-08T08:51:37;54.83;;;28.67;;
6207;SDS011;3137;51.550;7.060;2024-03-08T08:54:03;48.63;;;27.03;;
6207;SDS011;3137;51.550;7.060;2024-03-08T08:56:30;50.40;;;27.33;;
6207;SDS011;3137;51.550;7.060;2024-03-08T08:58:57;58.07;;;27.70;;
6207;SDS011;3137;51.550;7.060;2024-03-08T09:01:24;48.90;;;27.60;;
6207;SDS011;3137;51.550;7.060;2024-03-08T09:03:50;51.70;;;26.37;;
6207;SDS011;3137;51.550;7.060;2024-03-08T09:06:18;48.20;;;26.17;;
6207;SDS011;3137;51.550;7.060;2024-03-08T09:08:44;48.77;;;26.80;;
6207;SDS011;3137;51.550;7.060;2024-03-08T09:11:12;48.03;;;26.60;;
6207;SDS011;3137;51.550;7.060;2024-03-08T09:13:38;45.77;;;26.03;;
6207;SDS011;3137;51.550;7.060;2024-03-08T09:16:05;51.00;;;25.67;;
6207;SDS011;3137;51.550;7.060;2024-03-08T09:18:32;44.33;;;25.10;;
6207;SDS011;3137;51.550;7.060;2024-03-08T09:20:59;49.53;;;26.07;;
6207;SDS011;3137;51.550;7.060;2024-03-08T09:23:26;45.23;;;25.27;;
6207;SDS011;3137;51.550;7.060;2024-03-08T09:25:56;61.43;;;28.33;;
6207;SDS011;3137;51.550;7.060;2024-03-08T09:28:26;45.03;;;25.67;;
6207;SDS011;3137;51.550;7.060;2024-03-08T09:30:53;46.97;;;25.63;;
6207;SDS011;3137;51.550;7.060;2024-03-08T09:33:25;43.67;;;25.87;;
6207;SDS011;3137;51.550;7.060;2024-03-08T09:35:53;37.17;;;23.33;;
6207;SDS011;3137;51.550;7.060;2024-03-08T09:38:19;44.97;;;24.93;;
6207;SDS011;3137;51.550;7.060;2024-03-08T09:40:46;35.53;;;22.80;;
6207;SDS011;3137;51.550;7.060;2024-03-08T09:43:14;44.03;;;26.23;;
6207;SDS011;3137;51.550;7.060;2024-03-08T09:45:40;45.37;;;25.37;;
6207;SDS011;3137;51.550;7.060;2024-03-08T09:48:11;48.03;;;25.03;;
6207;SDS011;3137;51.550;7.060;2024-03-08T09:50:40;38.10;;;22.90;;
6207;SDS011;3137;51.550;7.060;2024-03-08T09:53:11;46.23;;;24.40;;
6207;SDS011;3137;51.550;7.060;2024-03-08T09:55:38;37.67;;;23.50;;
6207;SDS011;3137;51.550;7.060;2024-03-08T09:58:09;42.37;;;24.67;;
6207;SDS011;3137;51.550;7.060;2024-03-08T10:00:54;46.60;;;26.80;;
6207;SDS011;3137;51.550;7.060;2024-03-08T10:03:23;48.00;;;24.37;;
6207;SDS011;3137;51.550;7.060;2024-03-08T10:05:49;43.73;;;23.63;;
6207;SDS011;3137;51.550;7.060;2024-03-08T10:08:16;38.47;;;23.50;;
6207;SDS011;3137;51.550;7.060;2024-03-08T10:10:42;41.70;;;24.23;;
6207;SDS011;3137;51.550;7.060;2024-03-08T10:13:09;44.93;;;25.33;;
6207;SDS011;3137;51.550;7.060;2024-03-08T10:15:39;44.57;;;25.23;;
6207;SDS011;3137;51.550;7.060;2024-03-08T10:18:06;42.40;;;24.77;;
6207;SDS011;3137;51.550;7.060;2024-03-08T10:20:33;47.00;;;24.27;;
6207;SDS011;3137;51.550;7.060;2024-03-08T10:23:00;42.83;;;24.83;;
6207;SDS011;3137;51.550;7.060;2024-03-08T10:25:37;39.23;;;24.63;;
6207;SDS011;3137;51.550;7.060;2024-03-08T10:28:04;39.67;;;23.30;;
6207;SDS011;3137;51.550;7.060;2024-03-08T10:30:31;49.47;;;22.90;;
6207;SDS011;3137;51.550;7.060;2024-03-08T10:32:58;38.00;;;23.83;;
6207;SDS011;3137;51.550;7.060;2024-03-08T10:35:25;43.07;;;24.43;;
6207;SDS011;3137;51.550;7.060;2024-03-08T10:37:52;45.90;;;25.93;;
6207;SDS011;3137;51.550;7.060;2024-03-08T10:40:26;36.60;;;23.27;;
6207;SDS011;3137;51.550;7.060;2024-03-08T10:42:55;49.67;;;25.57;;
6207;SDS011;3137;51.550;7.060;2024-03-08T10:45:26;42.23;;;25.07;;
6207;SDS011;3137;51.550;7.060;2024-03-08T10:48:08;41.27;;;23.80;;
6207;SDS011;3137;51.550;7.060;2024-03-08T10:50:44;42.33;;;24.90;;
6207;SDS011;3137;51.550;7.060;2024-03-08T10:53:15;38.47;;;23.43;;
6207;SDS011;3137;51.550;7.060;2024-03-08T10:55:41;42.17;;;25.23;;
6207;SDS011;3137;51.550;7.060;2024-03-08T10:58:09;39.60;;;23.57;;
6207;SDS011;3137;51.550;7.060;2024-03-08T11:00:36;41.97;;;23.77;;
6207;SDS011;3137;51.550;7.060;2024-03-08T11:03:03;34.47;;;23.07;;
6207;SDS011;3137;51.550;7.060;2024-03-08T11:05:36;42.60;;;23.27;;
6207;SDS011;3137;51.550;7.060;2024-03-08T11:10:50;35.57;;;25.23;;
6207;SDS011;3137;51.550;7.060;2024-03-08T11:13:32;38.17;;;25.47;;
6207;SDS011;3137;51.550;7.060;2024-03-08T11:16:01;39.77;;;24.53;;
6207;SDS011;3137;51.550;7.060;2024-03-08T11:18:32;39.63;;;26.27;;
6207;SDS011;3137;51.550;7.060;2024-03-08T11:21:19;36.40;;;25.17;;
6207;SDS011;3137;51.550;7.060;2024-03-08T11:23:58;38.30;;;24.93;;
6207;SDS011;3137;51.550;7.060;2024-03-08T11:26:29;36.93;;;24.27;;
6207;SDS011;3137;51.550;7.060;2024-03-08T11:32:05;35.60;;;23.80;;
6207;SDS011;3137;51.550;7.060;2024-03-08T11:34:35;50.00;;;23.93;;
6207;SDS011;3137;51.550;7.060;2024-03-08T11:37:05;35.90;;;24.00;;
6207;SDS011;3137;51.550;7.060;2024-03-08T11:39:39;44.30;;;24.37;;
6207;SDS011;3137;51.550;7.060;2024-03-08T11:42:06;45.10;;;25.77;;
6207;SDS011;3137;51.550;7.060;2024-03-08T11:44:32;41.93;;;26.27;;
6207;SDS011;3137;51.550;7.060;2024-03-08T11:46:59;36.50;;;23.33;;
6207;SDS011;3137;51.550;7.060;2024-03-08T11:49:25;43.57;;;24.30;;
6207;SDS011;3137;51.550;7.060;2024-03-08T11:51:52;42.73;;;25.23;;
6207;SDS011;3137;51.550;7.060;2024-03-08T11:54:22;38.90;;;25.03;;
6207;SDS011;3137;51.550;7.060;2024-03-08T11:56:51;42.00;;;25.73;;
6207;SDS011;3137;51.550;7.060;2024-03-08T11:59:18;41.47;;;24.00;;
6207;SDS011;3137;51.550;7.060;2024-03-08T12:01:56;38.83;;;24.13;;
6207;SDS011;3137;51.550;7.060;2024-03-08T12:04:28;43.40;;;23.80;;
6207;SDS011;3137;51.550;7.060;2024-03-08T12:06:54;46.00;;;25.40;;
6207;SDS011;3137;51.550;7.060;2024-03-08T12:09:21;37.70;;;24.50;;
6207;SDS011;3137;51.550;7.060;2024-03-08T12:11:48;41.03;;;24.50;;
6207;SDS011;3137;51.550;7.060;2024-03-08T12:14:15;49.10;;;25.77;;
6207;SDS011;3137;51.550;7.060;2024-03-08T12:16:41;39.37;;;24.13;;
6207;SDS011;3137;51.550;7.060;2024-03-08T12:19:09;48.00;;;22.80;;
6207;SDS011;3137;51.550;7.060;2024-03-08T12:21:36;33.73;;;23.97;;
6207;SDS011;3137;51.550;7.060;2024-03-08T12:24:03;32.67;;;23.00;;
6207;SDS011;3137;51.550;7.060;2024-03-08T12:26:31;41.03;;;22.57;;
6207;SDS011;3137;51.550;7.060;2024-03-08T12:31:47;38.93;;;21.47;;
6207;SDS011;3137;51.550;7.060;2024-03-08T12:34:14;32.73;;;22.17;;
6207;SDS011;3137;51.550;7.060;2024-03-08T12:36:50;34.80;;;21.53;;
6207;SDS011;3137;51.550;7.060;2024-03-08T12:39:20;33.17;;;21.37;;
6207;SDS011;3137;51.550;7.060;2024-03-08T12:41:48;31.57;;;21.80;;
6207;SDS011;3137;51.550;7.060;2024-03-08T12:44:18;34.73;;;22.03;;
6207;SDS011;3137;51.550;7.060;2024-03-08T12:46:48;30.23;;;21.57;;
6207;SDS011;3137;51.550;7.060;2024-03-08T12:49:18;26.13;;;20.03;;
6207;SDS011;3137;51.550;7.060;2024-03-08T12:51:44;30.60;;;20.30;;
6207;SDS011;3137;51.550;7.060;2024-03-08T12:54:11;28.00;;;19.57;;
6207;SDS011;3137;51.550;7.060;2024-03-08T12:56:38;31.40;;;21.13;;
6207;SDS011;3137;51.550;7.060;2024-03-08T12:59:09;25.30;;;18.50;;
6207;SDS011;3137;51.550;7.060;2024-03-08T13:01:36;26.60;;;18.00;;
6207;SDS011;3137;51.550;7.060;2024-03-08T13:04:05;25.00;;;17.83;;
6207;SDS011;3137;51.550;7.060;2024-03-08T13:06:33;25.20;;;16.70;;
6207;SDS011;3137;51.550;7.060;2024-03-08T13:08:59;16.10;;;14.30;;
6207;SDS011;3137;51.550;7.060;2024-03-08T13:11:31;17.40;;;14.40;;
6207;SDS011;3137;51.550;7.060;2024-03-08T13:14:03;15.10;;;13.53;;
6207;SDS011;3137;51.550;7.060;2024-03-08T13:16:31;15.07;;;13.67;;
6207;SDS011;3137;51.550;7.060;2024-03-08T13:18:58;14.47;;;12.90;;
6207;SDS011;3137;51.550;7.060;2024-03-08T13:21:25;16.10;;;13.67;;
6207;SDS011;3137;51.550;7.060;2024-03-08T13:23:51;18.73;;;14.30;;
6207;SDS011;3137;51.550;7.060;2024-03-08T13:26:20;14.87;;;13.40;;
6207;SDS011;3137;51.550;7.060;2024-03-08T13:28:47;20.73;;;14.07;;
6207;SDS011;3137;51.550;7.060;2024-03-08T13:31:23;17.53;;;13.73;;
6207;SDS011;3137;51.550;7.060;2024-03-08T13:33:49;20.00;;;14.03;;
6207;SDS011;3137;51.550;7.060;2024-03-08T13:36:17;17.77;;;14.77;;
6207;SDS011;3137;51.550;7.060;2024-03-08T13:38:47;15.20;;;13.50;;
6207;SDS011;3137;51.550;7.060;2024-03-08T13:41:15;23.87;;;15.53;;
6207;SDS011;3137;51.550;7.060;2024-03-08T13:43:43;30.27;;;16.30;;
6207;SDS011;3137;51.550;7.060;2024-03-08T13:46:12;26.73;;;15.63;;
6207;SDS011;3137;51.550;7.060;2024-03-08T13:48:38;18.50;;;16.17;;
6207;SDS011;3137;51.550;7.060;2024-03-08T13:51:05;20.83;;;16.80;;
6207;SDS011;3137;51.550;7.060;2024-03-08T13:53:36;24.43;;;16.47;;
6207;SDS011;3137;51.550;7.060;2024-03-08T13:56:03;17.77;;;15.83;;
6207;SDS011;3137;51.550;7.060;2024-03-08T13:58:30;20.53;;;16.53;;
6207;SDS011;3137;51.550;7.060;2024-03-08T14:00:56;22.57;;;16.80;;
6207;SDS011;3137;51.550;7.060;2024-03-08T14:03:23;23.73;;;16.40;;
6207;SDS011;3137;51.550;7.060;2024-03-08T14:05:52;24.97;;;16.17;;
6207;SDS011;3137;51.550;7.060;2024-03-08T14:08:21;23.00;;;17.13;;
6207;SDS011;3137;51.550;7.060;2024-03-08T14:10:48;28.47;;;17.67;;
6207;SDS011;3137;51.550;7.060;2024-03-08T14:13:16;24.87;;;17.97;;
6207;SDS011;3137;51.550;7.060;2024-03-08T14:15:45;23.30;;;17.60;;
6207;SDS011;3137;51.550;7.060;2024-03-08T14:18:12;22.43;;;15.80;;
6207;SDS011;3137;51.550;7.060;2024-03-08T14:20:42;22.37;;;16.33;;
6207;SDS011;3137;51.550;7.060;2024-03-08T14:23:08;23.03;;;16.70;;
6207;SDS011;3137;51.550;7.060;2024-03-08T14:25:35;22.07;;;16.43;;
6207;SDS011;3137;51.550;7.060;2024-03-08T14:28:01;23.83;;;17.43;;
6207;SDS011;3137;51.550;7.060;2024-03-08T14:30:33;22.93;;;17.33;;
6207;SDS011;3137;51.550;7.060;2024-03-08T14:33:07;23.17;;;18.07;;
6207;SDS011;3137;51.550;7.060;2024-03-08T14:35:37;24.87;;;17.73;;
6207;SDS011;3137;51.550;7.060;2024-03-08T14:38:05;23.23;;;18.10;;
6207;SDS011;3137;51.550;7.060;2024-03-08T14:40:35;23.67;;;18.13;;
6207;SDS011;3137;51.550;7.060;2024-03-08T14:43:02;28.47;;;18.33;;
6207;SDS011;3137;51.550;7.060;2024-03-08T14:45:32;25.50;;;18.53;;
6207;SDS011;3137;51.550;7.060;2024-03-08T14:47:58;23.90;;;18.17;;
6207;SDS011;3137;51.550;7.060;2024-03-08T14:50:26;28.17;;;19.60;;
6207;SDS011;3137;51.550;7.060;2024-03-08T14:52:52;29.13;;;19.37;;
6207;SDS011;3137;51.550;7.060;2024-03-08T14:55:19;30.80;;;18.27;;
6207;SDS011;3137;51.550;7.060;2024-03-08T14:57:48;29.43;;;19.50;;
6207;SDS011;3137;51.550;7.060;2024-03-08T15:00:17;27.67;;;19.43;;
6207;SDS011;3137;51.550;7.060;2024-03-08T15:02:53;28.93;;;18.50;;